Scottsdale, Arizona
Current Conditions -  °F | °C
As of 10:51 AM on Sunday 21 Dec 2014 (Local Time) from KPHX Reporting Station
Scattered Clouds Scattered Clouds  
Wind Chill: 57°   Ceiling: Unl
Heat Index: 57°   Visibility: 10mi
Dew Point: 41°   Wind: 5mph
Humidity: 55%   Direction: 100°E
Pressure: 30.12"   Gusts: NA
Location:  33.49°N, 111.92°W
Report Text: KPHX 211751Z 10004KT 10SM FEW180 SCT240 14/05 A3012 RMK AO2 SLP193 T01390050 10139 20083 51010
Loading
Personal Weather Stations






























Interactive Weather Map New forecast layout! Learn more

10-Day Weather Forecast

Advertisements
Track Severe Weather on mobile